Time;durP1;ratioP1;P1;durP2;ratioP2;P2;SDS_P1;SDS_P2;PMS_P1;PMS_P2;Temp;Humidity;BMP_temperature;BMP_pressure;BME280_temperature;BME280_humidity;BME280_pressure;Samples;Min_cycle;Max_cycle;Signal;HPM_P1;HPM_P2
2021/12/11 00:01:19;;;;;;;44.30;22.17;;;2.10;99.90;;;;;;5053903;28;20459;-41
2021/12/11 00:04:07;;;;;;;40.63;23.07;;;2.10;99.90;;;;;;5054349;28;20755;-40
2021/12/11 00:06:38;;;;;;;29.93;15.07;;;2.10;99.90;;;;;;5054127;28;20197;-41
2021/12/11 00:09:16;;;;;;;31.87;19.33;;;2.10;99.90;;;;;;5054103;28;20175;-41
2021/12/11 00:11:44;;;;;;;43.90;22.73;;;2.10;99.90;;;;;;5053889;28;20444;-41
2021/12/11 00:14:11;;;;;;;35.80;20.73;;;2.20;99.90;;;;;;5054193;28;20435;-43
2021/12/11 00:16:39;;;;;;;36.33;20.73;;;2.20;99.90;;;;;;5053690;28;20237;-43
2021/12/11 00:19:15;;;;;;;41.87;22.47;;;2.20;99.90;;;;;;5053728;28;20794;-41
2021/12/11 00:21:41;;;;;;;37.83;19.63;;;2.20;99.90;;;;;;5053633;28;20578;-41
2021/12/11 00:24:12;;;;;;;38.93;21.03;;;2.20;99.90;;;;;;5035673;28;20407;-43
2021/12/11 00:26:44;;;;;;;37.40;21.30;;;2.20;99.90;;;;;;5053741;28;20189;-43
2021/12/11 00:29:12;;;;;;;40.67;21.17;;;2.20;99.90;;;;;;5053357;28;20177;-41
2021/12/11 00:31:48;;;;;;;49.40;26.03;;;2.30;99.90;;;;;;5053395;28;20201;-43
2021/12/11 00:34:18;;;;;;;40.87;23.37;;;2.30;99.90;;;;;;5053768;28;20382;-42
2021/12/11 00:37:18;;;;;;;46.27;24.50;;;2.30;99.90;;;;;;5053555;28;20804;-41
2021/12/11 00:39:57;;;;;;;39.33;22.03;;;2.30;99.90;;;;;;5000546;28;20471;-41
2021/12/11 00:42:31;;;;;;;36.73;18.93;;;2.30;99.90;;;;;;5053493;28;20435;-45
2021/12/11 00:44:59;;;;;;;37.43;22.77;;;2.30;99.90;;;;;;5053377;28;20412;-43
2021/12/11 00:47:27;;;;;;;41.27;23.57;;;2.30;99.90;;;;;;5053379;28;20177;-42
2021/12/11 00:49:57;;;;;;;40.00;21.73;;;2.30;99.90;;;;;;5053409;28;20191;-39
2021/12/11 00:52:40;;;;;;;46.87;21.33;;;2.30;99.90;;;;;;5053031;28;20700;-42
2021/12/11 00:55:23;;;;;;;41.30;21.63;;;2.30;99.90;;;;;;5053412;28;20396;-42
2021/12/11 00:57:59;;;;;;;43.63;24.43;;;2.30;99.90;;;;;;5053052;28;20872;-42
2021/12/11 01:00:25;;;;;;;37.97;21.50;;;2.30;99.90;;;;;;5053019;28;20789;-42
2021/12/11 01:02:53;;;;;;;46.10;22.87;;;2.30;99.90;;;;;;5055907;28;20443;-41
2021/12/11 01:05:20;;;;;;;44.97;23.60;;;2.30;99.90;;;;;;5059581;28;20240;-42
2021/12/11 01:07:46;;;;;;;42.17;21.97;;;2.40;99.90;;;;;;5059562;28;20171;-42
2021/12/11 01:10:15;;;;;;;44.63;22.77;;;2.40;99.90;;;;;;5059492;28;20416;-42
2021/12/11 01:12:55;;;;;;;41.97;22.80;;;2.40;99.90;;;;;;5059454;28;20742;-43
2021/12/11 01:15:25;;;;;;;45.27;24.00;;;2.40;99.90;;;;;;5059779;28;20466;-43
2021/12/11 01:20:48;;;;;;;39.87;21.77;;;2.40;99.90;;;;;;5059380;28;20210;-44
2021/12/11 01:23:29;;;;;;;39.20;21.40;;;2.40;99.90;;;;;;5059396;28;20874;-42
2021/12/11 01:25:56;;;;;;;42.07;22.37;;;2.40;99.90;;;;;;5059643;28;20430;-44
2021/12/11 01:28:22;;;;;;;42.03;24.10;;;2.40;99.90;;;;;;5059613;28;20599;-42
2021/12/11 01:30:47;;;;;;;44.13;23.17;;;2.40;99.90;;;;;;5059358;28;20256;-44
2021/12/11 01:33:13;;;;;;;45.00;23.03;;;2.50;99.90;;;;;;5059201;28;20566;-45
2021/12/11 01:35:40;;;;;;;45.77;24.43;;;2.40;99.90;;;;;;5059359;28;20302;-44
2021/12/11 01:38:27;;;;;;;44.27;23.40;;;2.50;99.90;;;;;;5059509;28;20190;-43
2021/12/11 01:40:59;;;;;;;42.47;22.93;;;2.50;99.90;;;;;;5059200;28;20282;-45
2021/12/11 01:43:28;;;;;;;46.83;24.20;;;2.50;99.90;;;;;;5059685;28;20401;-44
2021/12/11 01:45:56;;;;;;;41.43;22.57;;;2.50;99.90;;;;;;5059402;28;20185;-43
2021/12/11 01:48:35;;;;;;;44.33;23.47;;;2.60;99.90;;;;;;5059522;28;20227;-43
2021/12/11 01:51:09;;;;;;;43.33;24.13;;;2.50;99.90;;;;;;5059452;28;20616;-44
2021/12/11 01:53:42;;;;;;;38.83;23.73;;;2.60;99.90;;;;;;5059324;28;20478;-42
2021/12/11 01:56:16;;;;;;;44.47;24.50;;;2.60;99.90;;;;;;5059454;28;20279;-43
2021/12/11 01:58:47;;;;;;;42.10;24.53;;;2.60;99.90;;;;;;5059540;28;20170;-43
2021/12/11 02:01:27;;;;;;;48.60;24.33;;;2.60;99.90;;;;;;5059265;28;20466;-46
2021/12/11 02:03:54;;;;;;;48.53;24.43;;;2.60;99.90;;;;;;5041510;28;20174;-47
2021/12/11 02:06:25;;;;;;;52.33;25.67;;;2.60;99.90;;;;;;5041246;28;20271;-46
2021/12/11 02:08:51;;;;;;;44.83;24.50;;;2.60;99.90;;;;;;5059267;28;20181;-47
2021/12/11 02:11:22;;;;;;;48.50;25.63;;;2.60;99.90;;;;;;5058989;28;20206;-48
2021/12/11 02:13:54;;;;;;;45.07;24.20;;;2.60;99.90;;;;;;5058764;28;20176;-48
2021/12/11 02:16:31;;;;;;;45.00;24.93;;;2.60;99.90;;;;;;5056165;28;20644;-46
2021/12/11 02:19:04;;;;;;;56.53;26.93;;;2.60;99.90;;;;;;5056285;28;20199;-48
2021/12/11 02:21:36;;;;;;;39.30;21.00;;;2.60;99.90;;;;;;5037828;28;20584;-48
2021/12/11 02:24:08;;;;;;;48.33;25.10;;;2.60;99.90;;;;;;5056139;28;20172;-47
2021/12/11 02:26:38;;;;;;;51.67;26.70;;;2.60;99.90;;;;;;5055650;28;20471;-47
2021/12/11 02:29:14;;;;;;;52.30;26.50;;;2.60;99.90;;;;;;5037767;28;20551;-47
2021/12/11 02:31:44;;;;;;;56.53;28.97;;;2.60;99.90;;;;;;5037840;28;20209;-47
2021/12/11 02:34:27;;;;;;;59.00;28.40;;;2.60;99.90;;;;;;5055971;28;20167;-46
2021/12/11 02:36:59;;;;;;;62.10;33.27;;;2.60;99.90;;;;;;5055919;28;20168;-47
2021/12/11 02:39:32;;;;;;;60.47;31.27;;;2.60;99.90;;;;;;5055447;28;20188;-48
2021/12/11 02:42:13;;;;;;;54.47;28.53;;;2.60;99.90;;;;;;5037576;28;20293;-48
2021/12/11 02:44:47;;;;;;;52.77;27.67;;;2.60;99.90;;;;;;5055465;28;20229;-48
2021/12/11 02:47:22;;;;;;;47.17;26.53;;;2.60;99.90;;;;;;5055703;28;20197;-47
2021/12/11 02:49:56;;;;;;;54.33;26.37;;;2.60;99.90;;;;;;5055377;28;20194;-48
2021/12/11 02:52:42;;;;;;;58.67;29.37;;;2.60;99.90;;;;;;5055906;28;20465;-46
2021/12/11 02:55:31;;;;;;;62.30;30.60;;;2.60;99.90;;;;;;5055270;28;20168;-48
2021/12/11 02:58:04;;;;;;;63.37;29.33;;;2.60;99.90;;;;;;5054428;28;20196;-46
2021/12/11 03:00:40;;;;;;;55.13;28.77;;;2.50;99.90;;;;;;5055226;28;20198;-47
2021/12/11 03:03:08;;;;;;;55.97;27.83;;;2.50;99.90;;;;;;5037297;28;20454;-40
2021/12/11 03:05:44;;;;;;;49.03;25.70;;;2.60;99.90;;;;;;5055305;28;20824;-46
2021/12/11 03:08:14;;;;;;;55.57;27.13;;;2.60;99.90;;;;;;5056047;28;20397;-47
2021/12/11 03:10:42;;;;;;;59.73;27.83;;;2.60;99.90;;;;;;5055166;28;20913;-49
2021/12/11 03:13:08;;;;;;;58.30;28.53;;;2.60;99.90;;;;;;5054838;28;20196;-47
2021/12/11 03:15:35;;;;;;;54.63;28.87;;;2.60;99.90;;;;;;5054896;28;20193;-47
2021/12/11 03:18:04;;;;;;;51.47;26.93;;;2.60;99.90;;;;;;5055063;28;20183;-47
2021/12/11 03:20:31;;;;;;;50.17;25.03;;;2.60;99.90;;;;;;5054567;28;20218;-48
2021/12/11 03:22:56;;;;;;;45.00;24.13;;;2.60;99.90;;;;;;5054975;28;20504;-45
2021/12/11 03:25:27;;;;;;;50.90;27.23;;;2.60;99.90;;;;;;5054462;28;20266;-48
2021/12/11 03:27:54;;;;;;;51.07;26.07;;;2.60;99.90;;;;;;5054603;28;20637;-48
2021/12/11 03:30:24;;;;;;;55.37;27.53;;;2.60;99.90;;;;;;5036920;28;20310;-47
2021/12/11 03:32:53;;;;;;;55.40;27.00;;;2.60;99.90;;;;;;5036657;28;20576;-48
2021/12/11 03:35:20;;;;;;;47.00;25.30;;;2.60;99.90;;;;;;5054574;28;20594;-48
2021/12/11 03:37:46;;;;;;;49.17;26.63;;;2.50;99.90;;;;;;5054477;28;20210;-47
2021/12/11 03:40:13;;;;;;;51.67;28.30;;;2.50;99.90;;;;;;5054447;28;20261;-48
2021/12/11 03:42:41;;;;;;;51.77;27.97;;;2.60;99.90;;;;;;5055145;28;20195;-49
2021/12/11 03:45:14;;;;;;;50.27;26.60;;;2.60;99.90;;;;;;5054309;28;20661;-46
2021/12/11 03:47:46;;;;;;;61.33;27.73;;;2.50;99.90;;;;;;5036593;28;20164;-49
2021/12/11 03:50:14;;;;;;;52.60;26.93;;;2.60;99.90;;;;;;5054465;28;20198;-49
2021/12/11 03:52:44;;;;;;;53.70;26.03;;;2.50;99.90;;;;;;5054968;28;20593;-47
2021/12/11 03:55:14;;;;;;;48.73;27.17;;;2.60;99.90;;;;;;5036273;28;20180;-47
2021/12/11 03:57:41;;;;;;;55.07;26.57;;;2.60;99.90;;;;;;5054470;28;20183;-46
2021/12/11 04:00:12;;;;;;;57.60;27.63;;;2.50;99.90;;;;;;5053986;28;20215;-47
2021/12/11 04:02:38;;;;;;;50.40;26.27;;;2.60;99.90;;;;;;5053806;28;20254;-48
2021/12/11 04:05:07;;;;;;;54.73;26.80;;;2.50;99.90;;;;;;5054474;28;20172;-47
2021/12/11 04:07:37;;;;;;;52.20;26.63;;;2.50;99.90;;;;;;5036291;28;20190;-46
2021/12/11 04:10:07;;;;;;;54.80;26.33;;;2.60;99.90;;;;;;5053892;28;20213;-47
2021/12/11 04:12:33;;;;;;;56.40;26.67;;;2.60;99.90;;;;;;5054077;28;20283;-47
2021/12/11 04:14:59;;;;;;;57.10;28.37;;;2.60;99.90;;;;;;5035987;28;20799;-47
2021/12/11 04:17:27;;;;;;;48.10;26.47;;;2.60;99.90;;;;;;5055003;28;20290;-47
2021/12/11 04:19:55;;;;;;;58.07;27.00;;;2.60;99.90;;;;;;5053560;28;20220;-48
2021/12/11 04:22:22;;;;;;;58.10;26.57;;;2.60;99.90;;;;;;5053827;28;20199;-47
2021/12/11 04:24:48;;;;;;;63.90;27.93;;;2.60;99.90;;;;;;5053718;28;20316;-47
2021/12/11 04:27:16;;;;;;;65.53;28.40;;;2.60;99.90;;;;;;5053771;28;20440;-47
2021/12/11 04:29:43;;;;;;;57.93;26.37;;;2.60;99.90;;;;;;5053939;28;20303;-48
2021/12/11 04:32:10;;;;;;;68.07;28.70;;;2.60;99.90;;;;;;5035508;28;21045;-46
2021/12/11 04:34:36;;;;;;;59.07;26.50;;;2.60;99.90;;;;;;5053694;28;20472;-48
2021/12/11 04:37:15;;;;;;;53.37;25.83;;;2.60;99.90;;;;;;5035106;28;20209;-47
2021/12/11 04:39:44;;;;;;;59.80;26.40;;;2.60;99.90;;;;;;5035445;28;20206;-47
2021/12/11 04:44:58;;;;;;;71.73;28.83;;;2.60;99.90;;;;;;5053847;28;20165;-49
2021/12/11 04:47:35;;;;;;;57.17;25.17;;;2.60;99.90;;;;;;5053540;28;20193;-48
2021/12/11 04:50:09;;;;;;;61.00;27.43;;;2.60;99.90;;;;;;5035445;28;20224;-48
2021/12/11 04:52:46;;;;;;;61.63;26.27;;;2.60;99.90;;;;;;5053519;28;20199;-47
2021/12/11 05:11:12;;;;;;;66.80;28.20;;;2.70;99.90;;;;;;5053244;28;20193;-47
2021/12/11 05:13:38;;;;;;;64.43;29.23;;;2.70;99.90;;;;;;5053246;28;20172;-46
2021/12/11 05:16:07;;;;;;;66.47;28.20;;;2.70;99.90;;;;;;5035194;28;20425;-48
2021/12/11 05:18:35;;;;;;;77.37;30.60;;;2.70;99.90;;;;;;5053091;28;20194;-48
2021/12/11 05:21:09;;;;;;;75.07;29.97;;;2.70;99.90;;;;;;5034904;28;20554;-47
2021/12/11 05:23:36;;;;;;;69.57;29.43;;;2.70;99.90;;;;;;5053421;28;20568;-48
2021/12/11 05:26:03;;;;;;;68.17;30.17;;;2.70;99.90;;;;;;5035151;28;20188;-47
2021/12/11 05:28:29;;;;;;;77.00;30.60;;;2.70;99.90;;;;;;5035207;28;20928;-49
2021/12/11 05:30:56;;;;;;;75.10;29.33;;;2.70;99.90;;;;;;5053184;28;20217;-48
2021/12/11 05:33:23;;;;;;;76.30;29.10;;;2.70;99.90;;;;;;5053302;28;20193;-46
2021/12/11 05:35:49;;;;;;;74.43;30.47;;;2.70;99.90;;;;;;5053164;28;20262;-46
2021/12/11 05:38:17;;;;;;;70.77;30.07;;;2.70;99.90;;;;;;5053170;28;20414;-45
2021/12/11 05:40:46;;;;;;;75.57;29.60;;;2.70;99.90;;;;;;5053107;28;20690;-47
2021/12/11 05:43:12;;;;;;;72.40;27.90;;;2.70;99.90;;;;;;5034946;28;20202;-49
2021/12/11 05:45:39;;;;;;;70.53;29.23;;;2.70;99.90;;;;;;5034965;28;20187;-47
2021/12/11 05:48:06;;;;;;;75.27;30.40;;;2.70;99.90;;;;;;5053130;28;20183;-47
2021/12/11 05:50:38;;;;;;;71.93;30.43;;;2.70;99.90;;;;;;5056585;28;20420;-47
2021/12/11 05:53:04;;;;;;;77.40;29.17;;;2.70;99.90;;;;;;5056667;28;20249;-48
2021/12/11 05:55:31;;;;;;;82.63;31.33;;;2.70;99.90;;;;;;5057140;28;20186;-47
2021/12/11 05:58:00;;;;;;;77.07;30.43;;;2.70;99.90;;;;;;5056616;28;20507;-50
2021/12/11 06:00:41;;;;;;;83.27;31.00;;;2.70;99.90;;;;;;5038643;28;20556;-48
2021/12/11 06:03:07;;;;;;;81.63;31.23;;;2.70;99.90;;;;;;5056395;28;20221;-46
2021/12/11 06:05:33;;;;;;;71.90;29.23;;;2.70;99.90;;;;;;5056886;28;20228;-47
2021/12/11 06:08:00;;;;;;;76.03;31.00;;;2.70;99.90;;;;;;5056658;28;20186;-49
2021/12/11 06:10:27;;;;;;;74.37;30.33;;;2.70;99.90;;;;;;5038777;28;20202;-47
2021/12/11 06:12:56;;;;;;;69.70;29.10;;;2.70;99.90;;;;;;5056423;28;20195;-48
2021/12/11 06:15:22;;;;;;;68.73;30.63;;;2.70;99.90;;;;;;5056301;28;20258;-48
2021/12/11 06:17:48;;;;;;;76.63;30.60;;;2.70;99.90;;;;;;5056266;28;20176;-46
2021/12/11 06:20:18;;;;;;;73.20;30.03;;;2.70;99.90;;;;;;5056104;28;20292;-48
2021/12/11 06:22:44;;;;;;;70.10;30.17;;;2.70;99.90;;;;;;5038306;28;20186;-48
2021/12/11 06:25:25;;;;;;;69.83;29.47;;;2.70;99.90;;;;;;5056269;28;20200;-46
2021/12/11 06:27:51;;;;;;;72.13;29.50;;;2.70;99.90;;;;;;5056187;28;20170;-47
2021/12/11 06:30:18;;;;;;;72.90;30.17;;;2.70;99.90;;;;;;5055873;28;20269;-47
2021/12/11 06:32:45;;;;;;;73.13;28.97;;;2.70;99.90;;;;;;5055794;28;20694;-47
2021/12/11 06:35:23;;;;;;;74.40;30.13;;;2.70;99.90;;;;;;5037852;28;20186;-47
2021/12/11 06:37:49;;;;;;;70.27;29.07;;;2.70;99.90;;;;;;5055892;28;20174;-48
2021/12/11 06:40:15;;;;;;;77.40;30.53;;;2.70;99.90;;;;;;5056045;28;20230;-48
2021/12/11 06:42:41;;;;;;;73.87;30.07;;;2.80;99.90;;;;;;5055863;28;20203;-46
2021/12/11 06:45:07;;;;;;;68.73;28.70;;;2.80;99.90;;;;;;5055919;28;20241;-47
2021/12/11 06:47:33;;;;;;;71.67;29.77;;;3.50;99.90;;;;;;5055653;28;20555;-47
2021/12/11 06:49:59;;;;;;;69.20;27.90;;;2.80;99.90;;;;;;5037765;28;20647;-46
2021/12/11 06:52:26;;;;;;;68.63;28.23;;;2.80;99.90;;;;;;5055443;28;20666;-46
2021/12/11 06:54:53;;;;;;;72.70;27.93;;;2.80;99.90;;;;;;5055701;28;20552;-47
2021/12/11 06:57:19;;;;;;;66.87;28.63;;;2.80;99.90;;;;;;5055487;28;20186;-46
2021/12/11 06:59:47;;;;;;;74.67;28.97;;;2.80;99.90;;;;;;5055412;28;20207;-48
2021/12/11 07:02:15;;;;;;;74.97;28.93;;;2.90;99.90;;;;;;5036602;28;20195;-47
2021/12/11 07:04:40;;;;;;;76.53;29.23;;;2.90;99.90;;;;;;5055418;28;20249;-47
2021/12/11 07:07:06;;;;;;;64.77;26.63;;;2.90;99.90;;;;;;5055466;28;20441;-48
2021/12/11 07:09:32;;;;;;;66.27;28.20;;;2.90;99.90;;;;;;5055088;28;20176;-47
2021/12/11 07:11:59;;;;;;;67.20;26.90;;;2.90;99.90;;;;;;5055100;28;20669;-46
2021/12/11 07:14:30;;;;;;;72.63;27.53;;;2.90;99.90;;;;;;5037864;28;20179;-41
2021/12/11 07:16:56;;;;;;;72.60;28.93;;;2.90;99.90;;;;;;5055177;28;20270;-43
2021/12/11 07:19:22;;;;;;;74.13;26.90;;;2.90;99.90;;;;;;5054919;28;20199;-43
2021/12/11 07:21:50;;;;;;;67.40;28.33;;;3.00;99.90;;;;;;5055024;28;20297;-42
2021/12/11 07:24:19;;;;;;;66.03;25.93;;;3.00;99.90;;;;;;5055076;28;20184;-42
2021/12/11 07:26:44;;;;;;;71.50;26.80;;;3.00;99.90;;;;;;5054740;28;20214;-43
2021/12/11 07:29:14;;;;;;;69.27;27.43;;;3.00;99.90;;;;;;5037163;28;20195;-43
2021/12/11 07:31:44;;;;;;;78.97;28.33;;;3.10;99.90;;;;;;5054631;28;20658;-44
2021/12/11 07:34:11;;;;;;;70.53;25.80;;;3.10;99.90;;;;;;5055074;28;20234;-42
2021/12/11 07:36:39;;;;;;;63.87;24.90;;;3.10;99.90;;;;;;5054679;28;20232;-42
2021/12/11 07:39:09;;;;;;;64.07;25.20;;;3.10;99.90;;;;;;5037366;28;20639;-43
2021/12/11 07:41:35;;;;;;;66.50;23.60;;;3.10;99.90;;;;;;5054333;28;20222;-44
2021/12/11 07:44:02;;;;;;;71.83;25.90;;;3.10;99.90;;;;;;5054385;28;20536;-42
2021/12/11 07:46:29;;;;;;;70.60;27.07;;;3.10;99.90;;;;;;5054319;28;20175;-45
2021/12/11 07:48:56;;;;;;;75.40;26.33;;;3.10;99.90;;;;;;5054580;28;20194;-43
2021/12/11 07:51:25;;;;;;;68.07;24.97;;;3.10;99.90;;;;;;5054297;28;20202;-43
2021/12/11 07:53:52;;;;;;;72.33;25.60;;;3.20;99.90;;;;;;5054276;28;20717;-42
2021/12/11 07:56:19;;;;;;;76.23;26.17;;;3.10;99.90;;;;;;5054279;28;20550;-42
2021/12/11 07:58:50;;;;;;;74.73;26.80;;;3.20;99.90;;;;;;5036271;28;20677;-43
2021/12/11 08:01:16;;;;;;;63.40;24.00;;;3.20;99.90;;;;;;5054116;28;20215;-42
2021/12/11 08:03:42;;;;;;;68.43;25.33;;;3.20;99.90;;;;;;5054092;28;20245;-43
2021/12/11 08:06:10;;;;;;;69.10;24.60;;;3.20;99.90;;;;;;5054398;28;20175;-42
2021/12/11 08:08:37;;;;;;;67.07;24.33;;;3.20;99.90;;;;;;5054249;28;20532;-43
2021/12/11 08:11:06;;;;;;;73.50;25.77;;;3.30;99.90;;;;;;5036001;28;20668;-42
2021/12/11 08:13:32;;;;;;;68.10;24.10;;;3.30;99.90;;;;;;5036172;28;20278;-43
2021/12/11 08:15:58;;;;;;;68.43;24.97;;;3.30;99.90;;;;;;5054148;28;20259;-43
2021/12/11 08:18:25;;;;;;;60.60;23.00;;;3.30;99.90;;;;;;5036249;28;20176;-44
2021/12/11 08:20:51;;;;;;;53.57;21.43;;;3.30;99.90;;;;;;5054184;28;20496;-42
2021/12/11 08:23:17;;;;;;;52.47;21.10;;;3.40;99.90;;;;;;5035916;28;20182;-42
2021/12/11 08:25:45;;;;;;;54.10;21.33;;;3.40;99.90;;;;;;5053890;28;20167;-42
2021/12/11 08:28:18;;;;;;;61.30;23.27;;;3.40;99.90;;;;;;5053817;28;20740;-42
2021/12/11 08:30:47;;;;;;;62.20;21.93;;;3.40;99.90;;;;;;5054096;28;20253;-41
2021/12/11 08:33:14;;;;;;;60.57;23.07;;;3.40;99.90;;;;;;5053753;28;20217;-43
2021/12/11 08:35:40;;;;;;;52.57;21.47;;;3.50;99.90;;;;;;5053982;28;20187;-42
2021/12/11 08:38:07;;;;;;;52.40;19.70;;;3.50;99.90;;;;;;5053608;28;20186;-42
2021/12/11 08:40:36;;;;;;;48.67;21.63;;;3.50;99.90;;;;;;5053787;28;20309;-42
2021/12/11 08:43:06;;;;;;;54.23;20.67;;;3.60;99.90;;;;;;5053590;28;20294;-42
2021/12/11 08:45:47;;;;;;;48.60;20.73;;;3.60;99.90;;;;;;5035740;28;20672;-42
2021/12/11 08:48:19;;;;;;;51.27;21.37;;;3.60;99.90;;;;;;5053863;28;20207;-42
2021/12/11 08:50:58;;;;;;;43.17;19.27;;;3.70;99.90;;;;;;5053744;28;20186;-43
2021/12/11 08:53:24;;;;;;;46.37;19.67;;;3.70;99.90;;;;;;5053734;28;20574;-42
2021/12/11 08:55:54;;;;;;;47.43;19.80;;;3.70;99.90;;;;;;5053842;28;20183;-43
2021/12/11 08:58:21;;;;;;;40.20;18.97;;;3.80;99.90;;;;;;5053921;28;20184;-42
2021/12/11 09:00:46;;;;;;;41.93;18.17;;;3.80;99.90;;;;;;5053372;28;20211;-43
2021/12/11 09:03:28;;;;;;;35.33;16.37;;;4.00;99.90;;;;;;5053356;28;20592;-42
2021/12/11 09:06:09;;;;;;;39.50;16.63;;;4.00;99.90;;;;;;5053195;28;20164;-42
2021/12/11 09:09:00;;;;;;;44.03;17.67;;;4.00;99.90;;;;;;5053466;28;20238;-43
2021/12/11 09:11:31;;;;;;;35.97;16.03;;;4.10;99.90;;;;;;5030585;28;20303;-44
2021/12/11 09:14:02;;;;;;;40.83;17.90;;;4.10;99.90;;;;;;5053325;28;20540;-42
2021/12/11 09:16:40;;;;;;;36.73;17.70;;;4.10;99.90;;;;;;5053060;28;20215;-42
2021/12/11 09:19:17;;;;;;;37.50;17.33;;;4.20;99.90;;;;;;5053671;28;20199;-47
2021/12/11 09:22:02;;;;;;;39.63;17.80;;;4.20;99.90;;;;;;5053948;28;20211;-48
2021/12/11 09:24:35;;;;;;;37.90;16.83;;;4.20;99.90;;;;;;5055786;28;20167;-46
2021/12/11 09:27:06;;;;;;;38.13;16.80;;;4.20;99.90;;;;;;5058324;28;20172;-49
2021/12/11 09:29:49;;;;;;;34.73;16.80;;;4.30;99.90;;;;;;5039756;28;20661;-47
2021/12/11 09:32:23;;;;;;;35.90;16.93;;;4.30;99.90;;;;;;5039902;28;20204;-47
2021/12/11 09:35:05;;;;;;;40.00;17.80;;;4.30;99.90;;;;;;5057686;28;20171;-48
2021/12/11 09:37:33;;;;;;;29.10;15.63;;;4.40;99.90;;;;;;5057895;28;20160;-47
2021/12/11 09:40:17;;;;;;;37.00;16.47;;;4.40;99.90;;;;;;5057825;28;20265;-48
2021/12/11 09:42:42;;;;;;;41.70;16.07;;;4.50;99.90;;;;;;5057261;28;20195;-47
2021/12/11 09:45:15;;;;;;;40.17;15.33;;;4.50;99.90;;;;;;5057639;28;20179;-49
2021/12/11 09:47:50;;;;;;;33.70;15.03;;;4.60;99.90;;;;;;5057413;28;20177;-47
2021/12/11 09:50:20;;;;;;;35.47;15.40;;;4.60;99.90;;;;;;5039706;28;20191;-48
2021/12/11 09:52:46;;;;;;;36.17;17.33;;;4.70;99.90;;;;;;5057440;28;20201;-47
2021/12/11 09:55:29;;;;;;;30.63;15.50;;;4.80;99.90;;;;;;5057968;28;20176;-48
2021/12/11 09:58:00;;;;;;;27.90;13.23;;;4.80;99.90;;;;;;5057519;28;20622;-48
2021/12/11 10:00:38;;;;;;;37.27;15.97;;;4.90;99.90;;;;;;5057543;28;20531;-47
2021/12/11 10:03:07;;;;;;;34.63;15.70;;;5.00;99.90;;;;;;5057196;28;20232;-49
2021/12/11 10:05:49;;;;;;;31.70;12.93;;;5.10;99.90;;;;;;5057350;28;20255;-47
2021/12/11 10:08:28;;;;;;;38.97;15.20;;;5.10;99.90;;;;;;5039102;28;20222;-47
2021/12/11 10:11:02;;;;;;;29.70;14.10;;;5.10;99.90;;;;;;5039996;28;20175;-47
2021/12/11 10:13:30;;;;;;;30.17;14.33;;;5.20;99.90;;;;;;5057422;28;20164;-48
2021/12/11 10:15:56;;;;;;;25.20;11.77;;;5.20;99.90;;;;;;5039438;28;20181;-47
2021/12/11 10:18:26;;;;;;;27.47;12.80;;;5.20;99.90;;;;;;5057401;28;20643;-49
2021/12/11 10:21:01;;;;;;;31.07;13.63;;;5.20;99.90;;;;;;5056772;28;20212;-47
2021/12/11 10:23:32;;;;;;;20.27;8.93;;;5.30;99.90;;;;;;5057022;28;20249;-47
2021/12/11 10:26:00;;;;;;;22.60;10.43;;;5.40;99.90;;;;;;5056837;28;20627;-48
2021/12/11 10:28:30;;;;;;;28.33;11.83;;;5.40;99.90;;;;;;5056487;28;20176;-48
2021/12/11 10:31:01;;;;;;;29.20;11.30;;;5.40;99.90;;;;;;5056207;28;20168;-48
2021/12/11 10:33:29;;;;;;;28.77;11.57;;;5.50;99.90;;;;;;5038700;28;20172;-48
2021/12/11 10:35:57;;;;;;;22.83;9.83;;;5.40;99.90;;;;;;5037421;28;20180;-48
2021/12/11 10:38:24;;;;;;;17.30;9.10;;;5.50;99.90;;;;;;5038895;28;20180;-47
2021/12/11 10:40:53;;;;;;;20.77;9.70;;;5.50;99.90;;;;;;5057379;28;20191;-48
2021/12/11 10:43:28;;;;;;;18.17;7.83;;;5.50;99.90;;;;;;5056809;28;20168;-49
2021/12/11 10:45:56;;;;;;;20.27;9.43;;;5.60;99.90;;;;;;5056598;28;20541;-46
2021/12/11 10:48:25;;;;;;;14.87;5.67;;;5.70;99.90;;;;;;5056509;28;20602;-48
2021/12/11 10:51:00;;;;;;;17.87;8.60;;;5.70;99.90;;;;;;5056569;28;20172;-48
2021/12/11 10:53:29;;;;;;;22.07;8.40;;;5.80;99.90;;;;;;5056423;28;20303;-48
2021/12/11 10:55:57;;;;;;;16.90;6.73;;;5.80;99.90;;;;;;5056263;28;20169;-47
2021/12/11 10:58:33;;;;;;;17.13;8.00;;;5.90;99.90;;;;;;5038628;28;20184;-47
2021/12/11 11:01:04;;;;;;;20.20;8.57;;;5.90;99.90;;;;;;5038029;28;20218;-47
2021/12/11 11:03:33;;;;;;;21.27;7.63;;;5.90;99.90;;;;;;5056075;28;20637;-47
2021/12/11 11:05:58;;;;;;;17.20;6.87;;;6.00;99.90;;;;;;5056498;28;20255;-47
2021/12/11 11:08:24;;;;;;;15.97;5.50;;;6.00;99.90;;;;;;5055684;28;20256;-48
2021/12/11 11:10:54;;;;;;;12.10;6.23;;;6.00;99.90;;;;;;5037785;28;20195;-47
2021/12/11 11:13:21;;;;;;;15.47;7.40;;;6.00;99.90;;;;;;5055480;28;20187;-48
2021/12/11 11:15:48;;;;;;;19.77;7.77;;;6.00;99.90;;;;;;5055215;28;20694;-47
2021/12/11 11:18:17;;;;;;;97.43;13.23;;;6.00;99.90;;;;;;5055648;28;20181;-47
2021/12/11 11:20:50;;;;;;;21.43;7.60;;;6.00;99.90;;;;;;5054841;28;20212;-43
2021/12/11 11:23:16;;;;;;;33.77;9.27;;;6.00;99.90;;;;;;5054930;28;20635;-42
2021/12/11 11:25:46;;;;;;;16.57;7.40;;;6.10;99.90;;;;;;5054931;28;20185;-40
2021/12/11 11:28:16;;;;;;;25.17;7.20;;;7.10;99.90;;;;;;5054966;28;20177;-41
2021/12/11 11:30:52;;;;;;;14.00;6.90;;;6.10;99.90;;;;;;5037415;28;20164;-43
2021/12/11 11:33:19;;;;;;;16.57;6.20;;;6.10;99.90;;;;;;5036937;28;20180;-42
2021/12/11 11:35:47;;;;;;;17.90;7.90;;;6.10;99.90;;;;;;5055045;28;20181;-44
2021/12/11 11:38:18;;;;;;;19.67;8.13;;;6.20;99.90;;;;;;5054871;28;20264;-43
2021/12/11 11:40:50;;;;;;;16.90;8.20;;;6.20;99.90;;;;;;5054342;28;20188;-43
2021/12/11 11:43:17;;;;;;;10.70;6.37;;;6.20;99.90;;;;;;5054735;28;20157;-41
2021/12/11 11:45:43;;;;;;;20.67;7.03;;;6.20;99.90;;;;;;5054428;28;20184;-45
2021/12/11 11:48:09;;;;;;;18.93;8.50;;;6.20;99.90;;;;;;5053749;28;20512;-42
2021/12/11 11:50:42;;;;;;;15.43;5.87;;;6.20;99.90;;;;;;5054149;28;20643;-43
2021/12/11 11:53:08;;;;;;;29.13;8.73;;;6.30;99.90;;;;;;5054338;28;20218;-42
2021/12/11 11:55:40;;;;;;;19.97;8.93;;;6.30;99.90;;;;;;5054297;28;20180;-41
2021/12/11 11:58:07;;;;;;;19.30;8.07;;;6.30;99.90;;;;;;5054303;28;20177;-41
2021/12/11 12:00:42;;;;;;;19.27;9.90;;;6.30;99.90;;;;;;5054118;28;20291;-42
2021/12/11 12:03:13;;;;;;;12.53;6.87;;;6.30;99.90;;;;;;5053833;28;20199;-43
2021/12/11 12:05:40;;;;;;;23.13;9.00;;;6.30;99.90;;;;;;5054002;28;20189;-43
2021/12/11 12:08:09;;;;;;;20.00;9.07;;;6.40;99.90;;;;;;5053938;28;20177;-42
2021/12/11 12:10:35;;;;;;;19.50;8.07;;;6.30;99.90;;;;;;5053986;28;20185;-44
2021/12/11 12:13:06;;;;;;;20.93;6.80;;;6.30;99.90;;;;;;5053974;28;20564;-43
2021/12/11 12:15:38;;;;;;;15.93;7.43;;;6.30;99.90;;;;;;5053759;28;20648;-43
2021/12/11 12:18:05;;;;;;;21.10;7.23;;;6.40;99.90;;;;;;5035716;28;20185;-44
2021/12/11 12:20:32;;;;;;;31.63;7.70;;;6.40;99.90;;;;;;5053481;28;20263;-43
2021/12/11 12:22:58;;;;;;;24.57;7.27;;;6.40;99.90;;;;;;5035569;28;20227;-41
2021/12/11 12:25:25;;;;;;;40.20;10.03;;;6.40;99.90;;;;;;5053717;28;20180;-43
2021/12/11 12:27:52;;;;;;;24.17;8.13;;;6.40;99.90;;;;;;5053462;28;20244;-42
2021/12/11 12:30:27;;;;;;;16.87;6.43;;;6.40;99.90;;;;;;5053528;28;20173;-43
2021/12/11 12:32:55;;;;;;;12.77;7.00;;;6.40;99.90;;;;;;5053581;28;20242;-43
2021/12/11 12:35:22;;;;;;;22.80;7.47;;;6.40;99.90;;;;;;5053329;28;20177;-44
2021/12/11 12:37:49;;;;;;;19.60;6.17;;;6.40;99.90;;;;;;5053622;28;20183;-42
2021/12/11 12:40:28;;;;;;;23.00;7.00;;;6.40;99.90;;;;;;5053214;28;20200;-44
2021/12/11 12:43:04;;;;;;;33.30;8.07;;;6.40;99.90;;;;;;5053427;28;20195;-44
2021/12/11 12:45:36;;;;;;;18.50;7.33;;;6.40;99.90;;;;;;5053370;28;20243;-42
2021/12/11 12:48:07;;;;;;;16.53;6.83;;;6.40;99.90;;;;;;5053493;28;20639;-43
2021/12/11 12:50:41;;;;;;;14.20;6.20;;;6.40;99.90;;;;;;5053421;28;20176;-43
2021/12/11 12:53:07;;;;;;;22.00;8.67;;;6.40;99.90;;;;;;5053001;28;20683;-42
2021/12/11 12:55:50;;;;;;;18.07;7.60;;;6.50;99.90;;;;;;5053062;28;20184;-44
2021/12/11 12:58:22;;;;;;;18.63;6.83;;;6.50;99.90;;;;;;5052498;28;20238;-44
2021/12/11 13:00:55;;;;;;;13.50;6.40;;;6.50;99.90;;;;;;5053123;28;20203;-42
2021/12/11 13:03:25;;;;;;;8.47;4.50;;;6.50;99.90;;;;;;5053267;28;20564;-44
2021/12/11 13:06:06;;;;;;;14.77;6.10;;;6.50;99.90;;;;;;5053361;28;20171;-42
2021/12/11 13:08:55;;;;;;;11.90;6.03;;;6.50;99.90;;;;;;5053398;28;20191;-43
2021/12/11 13:11:37;;;;;;;13.97;6.80;;;6.50;99.90;;;;;;5053172;28;20198;-42
2021/12/11 13:14:05;;;;;;;16.93;6.67;;;6.50;99.90;;;;;;5052814;28;20258;-43
2021/12/11 13:16:38;;;;;;;11.07;5.20;;;6.50;99.90;;;;;;5053068;28;20185;-43